Mc Coy, Texas
Current Conditions -  °F | °C
As of 5:15 PM on Saturday 25 Oct 2014 (Local Time) from KPEZ Reporting Station
Clear Clear  
Wind Chill: 88°   Ceiling: Unl
Heat Index: 88°   Visibility: 10mi
Dew Point: 53°   Wind: 3mph
Humidity: 30%   Direction: 110°ESE
Pressure: 30.08"   Gusts: NA
Location:  28.8518°N, 98.2685°W
Report Text: KPEZ 252215Z AUTO 11003KT 10SM CLR 31/12 A3008 RMK AO2 T03120118
Loading
Personal Weather Stations






























Interactive Weather Map
Tropical Storm Tracking
New forecast layout! Learn more

10-Day Weather Forecast

Advertisements
Track Severe Weather on mobile